createdAt,value
2022-10-06T00:00:01.248Z,74.88
2022-10-06T00:02:28.589Z,75.40
2022-10-06T00:04:55.860Z,76.01
2022-10-06T00:07:22.937Z,76.34
2022-10-06T00:09:50.005Z,75.29
2022-10-06T00:12:16.971Z,74.10
2022-10-06T00:14:44.040Z,73.90
2022-10-06T00:17:11.197Z,74.52
2022-10-06T00:19:38.212Z,75.62
2022-10-06T00:22:05.288Z,75.76
2022-10-06T00:24:32.384Z,75.39
2022-10-06T00:26:59.386Z,73.69
2022-10-06T00:29:26.428Z,72.92
2022-10-06T00:31:53.783Z,73.35
2022-10-06T00:34:20.934Z,73.55
2022-10-06T00:36:47.857Z,73.98
2022-10-06T00:39:14.820Z,74.78
2022-10-06T00:41:42.570Z,74.67
2022-10-06T00:44:09.632Z,73.74
2022-10-06T00:46:45.342Z,73.38
2022-10-06T00:49:15.603Z,74.28
2022-10-06T00:51:46.143Z,75.07
2022-10-06T00:54:13.147Z,76.22
2022-10-06T00:56:40.845Z,77.05
2022-10-06T00:59:11.041Z,75.39
2022-10-06T01:01:38.151Z,74.23
2022-10-06T01:04:07.320Z,74.27
2022-10-06T01:06:46.283Z,74.47
2022-10-06T01:09:15.239Z,75.48
2022-10-06T01:11:42.788Z,76.03
2022-10-06T01:14:10.585Z,77.18
2022-10-06T01:16:38.233Z,76.76
2022-10-06T01:19:07.104Z,74.99
2022-10-06T01:21:38.959Z,74.87
2022-10-06T01:24:08.075Z,75.63
2022-10-06T01:26:36.728Z,75.86
2022-10-06T01:29:03.658Z,76.96
2022-10-06T01:31:31.102Z,78.34
2022-10-06T01:33:59.322Z,77.68
2022-10-06T01:36:26.783Z,76.07
2022-10-06T01:38:54.642Z,75.80
2022-10-06T01:41:22.918Z,76.05
2022-10-06T01:43:49.981Z,76.48
2022-10-06T01:46:17.017Z,77.18
2022-10-06T01:48:43.958Z,78.17
2022-10-06T01:51:18.772Z,77.77
2022-10-06T01:53:45.839Z,76.28
2022-10-06T01:56:14.009Z,75.98
2022-10-06T01:58:41.670Z,75.92
2022-10-06T02:01:10.046Z,76.09
2022-10-06T02:03:38.128Z,77.23
2022-10-06T02:06:05.532Z,77.79
2022-10-06T02:08:33.550Z,78.08
2022-10-06T02:11:09.395Z,76.06
2022-10-06T02:13:41.144Z,75.33
2022-10-06T02:16:09.112Z,76.64
2022-10-06T02:18:36.485Z,77.28
2022-10-06T02:21:03.600Z,77.50
2022-10-06T02:23:30.815Z,78.17
2022-10-06T02:26:01.833Z,77.67
2022-10-06T02:28:29.547Z,76.02
2022-10-06T02:31:03.966Z,75.72
2022-10-06T02:33:31.255Z,76.72
2022-10-06T02:35:58.608Z,76.55
2022-10-06T02:38:26.893Z,77.63
2022-10-06T02:40:54.446Z,78.45
2022-10-06T02:43:22.131Z,77.86
2022-10-06T02:45:56.181Z,76.12
2022-10-06T02:48:25.433Z,75.53
2022-10-06T02:51:00.561Z,76.05
2022-10-06T02:53:28.152Z,77.06
2022-10-06T02:56:03.118Z,77.83
2022-10-06T02:58:30.525Z,78.43
2022-10-06T03:01:02.941Z,77.57
2022-10-06T03:03:31.252Z,76.12
2022-10-06T03:06:04.803Z,75.55
2022-10-06T03:08:33.232Z,76.11
2022-10-06T03:11:02.433Z,76.51
2022-10-06T03:13:30.610Z,77.02
2022-10-06T03:15:58.245Z,78.00
2022-10-06T03:18:25.802Z,77.39
2022-10-06T03:20:54.244Z,75.86
2022-10-06T03:23:21.557Z,75.50
2022-10-06T03:25:56.852Z,75.80
2022-10-06T03:28:24.039Z,76.04
2022-10-06T03:30:51.323Z,76.55
2022-10-06T03:33:19.165Z,78.08
2022-10-06T03:35:46.679Z,78.03
2022-10-06T03:38:13.981Z,77.84
2022-10-06T03:40:41.038Z,76.17
2022-10-06T03:43:09.747Z,75.39
2022-10-06T03:45:37.169Z,75.68
2022-10-06T03:48:04.931Z,76.18
2022-10-06T03:50:32.392Z,76.48
2022-10-06T03:52:59.886Z,77.05
2022-10-06T03:55:27.129Z,78.04
2022-10-06T03:57:57.526Z,77.72
2022-10-06T04:00:25.083Z,76.18
2022-10-06T04:02:52.135Z,75.58
2022-10-06T04:05:19.327Z,76.04
2022-10-06T04:07:46.339Z,76.76
2022-10-06T04:10:13.404Z,77.38
2022-10-06T04:12:40.708Z,78.44
2022-10-06T04:15:08.646Z,77.87
2022-10-06T04:17:35.750Z,76.65
2022-10-06T04:20:02.999Z,76.11
2022-10-06T04:22:30.248Z,76.82
2022-10-06T04:24:57.314Z,77.89
2022-10-06T04:27:30.564Z,78.50
2022-10-06T04:30:10.946Z,79.04
2022-10-06T04:32:39.046Z,78.28
2022-10-06T04:35:06.842Z,76.88
2022-10-06T04:37:33.835Z,76.47
2022-10-06T04:40:02.111Z,77.29
2022-10-06T04:42:34.840Z,77.92
2022-10-06T04:45:04.921Z,78.77
2022-10-06T04:47:32.256Z,79.43
2022-10-06T04:52:24.818Z,77.56
2022-10-06T04:54:52.029Z,77.41
2022-10-06T04:57:19.016Z,77.62
2022-10-06T05:00:07.983Z,78.36
2022-10-06T05:02:38.594Z,78.89
2022-10-06T05:05:08.048Z,77.62
2022-10-06T05:07:35.369Z,75.21
2022-10-06T05:10:02.925Z,74.89
2022-10-06T05:12:31.525Z,74.68
2022-10-06T05:14:58.974Z,75.32
2022-10-06T05:17:25.977Z,76.07
2022-10-06T05:19:53.384Z,76.35
2022-10-06T05:22:20.704Z,75.15
2022-10-06T05:24:49.935Z,74.05
2022-10-06T05:27:17.783Z,73.53
2022-10-06T05:29:44.687Z,73.90
2022-10-06T05:32:12.620Z,74.60
2022-10-06T05:34:39.535Z,75.39
2022-10-06T05:37:06.740Z,76.23
2022-10-06T05:39:34.663Z,75.02
2022-10-06T05:42:01.743Z,73.41
2022-10-06T05:44:29.288Z,73.12
2022-10-06T05:46:59.796Z,73.24
2022-10-06T05:49:26.966Z,73.88
2022-10-06T05:52:00.544Z,74.14
2022-10-06T05:54:30.478Z,74.39
2022-10-06T05:56:57.437Z,73.71
2022-10-06T05:59:24.461Z,72.26
2022-10-06T06:01:54.127Z,72.79
2022-10-06T06:04:29.769Z,72.44
2022-10-06T06:06:57.163Z,72.77
2022-10-06T06:09:26.668Z,72.51
2022-10-06T06:11:55.706Z,72.70
2022-10-06T06:14:49.641Z,71.16
2022-10-06T06:17:20.790Z,69.23
2022-10-06T06:19:48.042Z,69.14
2022-10-06T06:22:15.991Z,68.85
2022-10-06T06:24:44.923Z,69.50
2022-10-06T06:27:12.351Z,68.89
2022-10-06T06:29:40.298Z,69.71
2022-10-06T06:32:09.707Z,68.86
2022-10-06T06:34:37.483Z,68.15
2022-10-06T06:37:08.421Z,67.44
2022-10-06T06:39:37.351Z,65.65
2022-10-06T06:42:05.496Z,65.94
2022-10-06T06:44:38.871Z,66.09
2022-10-06T06:47:19.862Z,66.45
2022-10-06T06:49:48.240Z,66.31
2022-10-06T06:52:15.907Z,66.58
2022-10-06T06:54:42.985Z,67.11
2022-10-06T06:57:13.785Z,67.14
2022-10-06T06:59:41.236Z,66.98
2022-10-06T07:02:12.033Z,64.76
2022-10-06T07:04:44.045Z,62.90
2022-10-06T07:07:13.958Z,63.57
2022-10-06T07:09:41.718Z,63.16
2022-10-06T07:12:11.706Z,63.42
2022-10-06T07:15:03.362Z,63.38
2022-10-06T07:17:51.807Z,63.17
2022-10-06T07:20:38.213Z,62.19
2022-10-06T07:23:24.305Z,62.87
2022-10-06T07:25:53.294Z,63.21
2022-10-06T07:28:21.251Z,62.03
2022-10-06T07:30:48.619Z,62.23
2022-10-06T07:33:19.365Z,62.04
2022-10-06T07:35:47.539Z,61.37
2022-10-06T07:38:16.955Z,61.46
2022-10-06T07:41:17.998Z,61.94
2022-10-06T07:43:42.463Z,61.34
2022-10-06T07:46:11.493Z,61.68
2022-10-06T07:48:44.713Z,61.65
2022-10-06T07:51:16.545Z,60.22
2022-10-06T07:53:50.376Z,60.19
2022-10-06T07:56:35.732Z,60.01
2022-10-06T07:59:03.250Z,58.74
2022-10-06T08:01:30.830Z,58.93
2022-10-06T08:03:58.371Z,58.46
2022-10-06T08:06:25.615Z,58.33
2022-10-06T08:08:53.562Z,57.91
2022-10-06T08:11:21.779Z,57.31
2022-10-06T08:13:49.155Z,55.78
2022-10-06T08:16:21.390Z,57.03
2022-10-06T08:18:53.555Z,57.16
2022-10-06T08:21:22.653Z,55.69
2022-10-06T08:23:50.436Z,54.46
2022-10-06T08:26:19.207Z,55.30
2022-10-06T08:28:48.503Z,54.06
2022-10-06T08:31:16.320Z,53.95
2022-10-06T08:33:43.826Z,52.69
2022-10-06T08:36:18.142Z,52.49
2022-10-06T08:38:50.185Z,52.39
2022-10-06T08:41:28.624Z,51.99
2022-10-06T08:44:13.348Z,52.13
2022-10-06T08:47:00.625Z,50.47
2022-10-06T08:49:34.035Z,50.21
2022-10-06T08:52:00.952Z,49.64
2022-10-06T08:54:33.939Z,49.80
2022-10-06T08:57:28.319Z,50.58
2022-10-06T08:59:55.483Z,48.64
2022-10-06T09:02:26.190Z,48.69
2022-10-06T09:04:53.562Z,48.78
2022-10-06T09:07:25.533Z,49.23
2022-10-06T09:10:04.961Z,48.61
2022-10-06T09:12:57.940Z,47.91
2022-10-06T09:15:42.240Z,48.34
2022-10-06T09:18:21.399Z,49.18
2022-10-06T09:20:54.592Z,48.43
2022-10-06T09:23:40.377Z,49.12
2022-10-06T09:26:11.314Z,48.28
2022-10-06T09:28:38.606Z,46.71
2022-10-06T09:31:18.468Z,47.06
2022-10-06T09:33:45.463Z,46.88
2022-10-06T09:36:12.825Z,47.61
2022-10-06T09:38:54.185Z,47.00
2022-10-06T09:41:28.693Z,47.11
2022-10-06T09:44:00.592Z,46.60
2022-10-06T09:46:32.630Z,46.31
2022-10-06T09:49:26.780Z,46.50
2022-10-06T09:52:04.748Z,45.15
2022-10-06T09:54:31.989Z,45.05
2022-10-06T09:57:00.365Z,44.70
2022-10-06T09:59:39.157Z,44.67
2022-10-06T10:02:27.355Z,44.61
2022-10-06T10:04:55.886Z,44.49
2022-10-06T10:07:27.699Z,44.58
2022-10-06T10:10:11.418Z,44.95
2022-10-06T10:12:38.653Z,44.23
2022-10-06T10:15:11.862Z,44.37
2022-10-06T10:17:51.794Z,44.35
2022-10-06T10:20:25.117Z,43.83
2022-10-06T10:22:52.866Z,43.82
2022-10-06T10:25:32.422Z,43.84
2022-10-06T10:28:14.447Z,43.21
2022-10-06T10:30:48.018Z,43.37
2022-10-06T10:33:31.052Z,44.39
2022-10-06T10:35:58.017Z,43.50
2022-10-06T10:38:25.228Z,43.19
2022-10-06T10:41:15.309Z,43.52
2022-10-06T10:43:53.834Z,43.17
2022-10-06T10:46:29.138Z,42.53
2022-10-06T10:49:05.125Z,43.33
2022-10-06T10:51:46.207Z,43.23
2022-10-06T10:54:18.988Z,44.02
2022-10-06T10:56:49.276Z,43.52
2022-10-06T10:59:36.034Z,43.06
2022-10-06T11:02:19.182Z,43.69
2022-10-06T11:05:15.123Z,43.66
2022-10-06T11:07:47.031Z,43.77
2022-10-06T11:10:17.145Z,42.89
2022-10-06T11:13:09.597Z,43.16
2022-10-06T11:15:43.505Z,43.64
2022-10-06T11:18:49.727Z,43.39
2022-10-06T11:21:21.296Z,43.55
2022-10-06T11:23:54.819Z,43.10
2022-10-06T11:26:36.124Z,44.37
2022-10-06T11:29:41.143Z,44.63
2022-10-06T11:32:40.849Z,44.08
2022-10-06T11:35:16.720Z,43.79
2022-10-06T11:37:56.300Z,45.22
2022-10-06T11:40:28.412Z,46.80
2022-10-06T11:42:59.953Z,45.64
2022-10-06T11:46:06.150Z,46.31
2022-10-06T11:48:33.617Z,45.69
2022-10-06T11:51:23.706Z,45.73
2022-10-06T11:53:51.645Z,45.80
2022-10-06T11:56:18.697Z,46.35
2022-10-06T11:58:52.062Z,46.46
2022-10-06T12:01:31.680Z,47.04
2022-10-06T12:04:08.035Z,47.11
2022-10-06T12:06:47.451Z,46.92
2022-10-06T12:09:32.940Z,48.12
2022-10-06T12:12:15.278Z,47.39
2022-10-06T12:17:53.204Z,47.11
2022-10-06T12:20:45.139Z,47.19
2022-10-06T12:23:25.512Z,47.42
2022-10-06T12:25:54.528Z,47.40
2022-10-06T12:28:36.004Z,46.61
2022-10-06T12:31:17.319Z,45.99
2022-10-06T12:33:45.363Z,46.14
2022-10-06T12:36:29.616Z,47.33
2022-10-06T12:43:17.685Z,47.10
2022-10-06T12:46:07.971Z,47.80
2022-10-06T12:48:55.096Z,47.18
2022-10-06T12:51:35.036Z,48.38
2022-10-06T12:54:19.737Z,47.71
2022-10-06T12:56:58.427Z,48.98
2022-10-06T12:59:33.466Z,48.99
2022-10-06T13:02:07.515Z,49.31
2022-10-06T13:05:00.756Z,48.53
2022-10-06T13:07:32.697Z,49.14
2022-10-06T13:10:15.417Z,50.40
2022-10-06T13:12:46.797Z,50.40
2022-10-06T13:15:22.860Z,50.14
2022-10-06T13:18:03.013Z,48.95
2022-10-06T13:20:43.320Z,49.97
2022-10-06T13:23:19.702Z,50.95
2022-10-06T13:25:48.692Z,50.39
2022-10-06T13:28:44.172Z,50.16
2022-10-06T13:31:31.650Z,50.98
2022-10-06T13:34:05.958Z,50.90
2022-10-06T13:36:34.844Z,50.88
2022-10-06T13:39:04.551Z,51.19
2022-10-06T13:41:34.334Z,51.09
2022-10-06T13:44:27.740Z,51.28
2022-10-06T13:47:01.390Z,51.65
2022-10-06T13:49:40.975Z,51.65
2022-10-06T13:52:16.470Z,51.95
2022-10-06T13:54:47.467Z,53.16
2022-10-06T13:57:42.470Z,52.24
2022-10-06T14:00:29.577Z,53.19
2022-10-06T14:03:06.137Z,52.80
2022-10-06T14:05:37.882Z,53.17
2022-10-06T14:08:11.045Z,53.84
2022-10-06T14:10:41.041Z,53.38
2022-10-06T14:13:21.997Z,54.44
2022-10-06T14:15:57.774Z,54.70
2022-10-06T14:18:37.484Z,54.85
2022-10-06T14:21:25.949Z,55.47
2022-10-06T14:23:54.012Z,55.96
2022-10-06T14:26:29.970Z,56.06
2022-10-06T14:28:57.420Z,56.70
2022-10-06T14:31:26.048Z,56.58
2022-10-06T14:33:53.891Z,56.99
2022-10-06T14:36:27.388Z,57.43
2022-10-06T14:38:55.366Z,57.49
2022-10-06T14:41:27.823Z,57.85
2022-10-06T14:43:55.503Z,57.97
2022-10-06T14:46:22.972Z,58.67
2022-10-06T14:48:51.126Z,58.79
2022-10-06T14:51:19.384Z,59.47
2022-10-06T14:54:13.181Z,60.10
2022-10-06T14:56:40.612Z,60.88
2022-10-06T14:59:12.768Z,61.22
2022-10-06T15:01:40.777Z,61.61
2022-10-06T15:04:10.274Z,62.22
2022-10-06T15:06:56.558Z,62.60
2022-10-06T15:09:24.111Z,62.73
2022-10-06T15:11:51.974Z,63.53
2022-10-06T15:14:19.139Z,63.78
2022-10-06T15:16:46.221Z,64.61
2022-10-06T15:19:13.430Z,64.63
2022-10-06T15:21:41.297Z,65.13
2022-10-06T15:24:11.809Z,65.73
2022-10-06T15:26:57.507Z,64.87
2022-10-06T15:29:24.568Z,63.47
2022-10-06T15:31:55.413Z,63.40
2022-10-06T15:34:25.354Z,64.04
2022-10-06T15:36:53.407Z,64.72
2022-10-06T15:39:22.255Z,65.48
2022-10-06T15:41:49.560Z,66.06
2022-10-06T15:44:16.688Z,66.78
2022-10-06T15:46:49.333Z,67.61
2022-10-06T15:49:26.826Z,67.96
2022-10-06T15:51:59.487Z,68.77
2022-10-06T15:54:31.518Z,67.24
2022-10-06T15:57:00.429Z,65.83
2022-10-06T15:59:28.917Z,65.22
2022-10-06T16:01:58.271Z,65.57
2022-10-06T16:04:39.145Z,66.22
2022-10-06T16:07:14.244Z,67.36
2022-10-06T16:09:43.588Z,68.08
2022-10-06T16:12:12.669Z,68.72
2022-10-06T16:14:39.915Z,69.42
2022-10-06T16:17:07.099Z,70.03
2022-10-06T16:19:37.181Z,69.66
2022-10-06T16:22:08.383Z,68.10
2022-10-06T16:24:35.577Z,67.60
2022-10-06T16:27:02.646Z,67.88
2022-10-06T16:29:29.661Z,68.69
2022-10-06T16:31:56.693Z,69.51
2022-10-06T16:34:25.520Z,70.54
2022-10-06T16:36:52.872Z,70.99
2022-10-06T16:39:21.663Z,72.19
2022-10-06T16:41:49.213Z,71.67
2022-10-06T16:44:16.377Z,70.07
2022-10-06T16:46:43.536Z,69.14
2022-10-06T16:49:11.133Z,69.32
2022-10-06T16:51:46.200Z,70.00
2022-10-06T16:54:14.282Z,70.89
2022-10-06T16:56:43.783Z,71.61
2022-10-06T16:59:23.983Z,72.59
2022-10-06T17:01:51.091Z,74.02
2022-10-06T17:04:25.301Z,73.52
2022-10-06T17:06:57.138Z,71.98
2022-10-06T17:09:26.151Z,72.09
2022-10-06T17:12:00.399Z,72.56
2022-10-06T17:14:28.341Z,73.11
2022-10-06T17:16:58.873Z,73.74
2022-10-06T17:19:27.551Z,74.58
2022-10-06T17:21:59.056Z,75.39
2022-10-06T17:24:28.807Z,74.54
2022-10-06T17:26:56.486Z,72.34
2022-10-06T17:29:23.858Z,72.09
2022-10-06T17:31:56.051Z,72.23
2022-10-06T17:34:26.464Z,73.23
2022-10-06T17:36:54.948Z,74.26
2022-10-06T17:39:22.933Z,74.75
2022-10-06T17:41:51.575Z,75.47
2022-10-06T17:44:23.453Z,74.60
2022-10-06T17:46:58.711Z,72.57
2022-10-06T17:49:26.026Z,72.12
2022-10-06T17:51:54.293Z,72.19
2022-10-06T17:54:24.199Z,73.07
2022-10-06T17:56:52.955Z,74.04
2022-10-06T17:59:24.674Z,75.05
2022-10-06T18:01:52.303Z,75.62
2022-10-06T18:04:19.672Z,74.73
2022-10-06T18:06:47.568Z,73.09
2022-10-06T18:09:15.604Z,72.35
2022-10-06T18:11:44.456Z,72.49
2022-10-06T18:14:12.557Z,73.16
2022-10-06T18:16:50.869Z,73.85
2022-10-06T18:19:26.699Z,74.65
2022-10-06T18:21:56.691Z,75.59
2022-10-06T18:24:25.441Z,74.68
2022-10-06T18:26:54.147Z,73.02
2022-10-06T18:29:23.260Z,72.47
2022-10-06T18:31:51.249Z,73.06
2022-10-06T18:36:06.716Z,73.72
2022-10-06T18:37:05.222Z,74.38
2022-10-06T18:39:33.686Z,74.87
2022-10-06T18:42:03.776Z,75.74
2022-10-06T18:44:49.741Z,75.40
2022-10-06T18:47:35.535Z,73.27
2022-10-06T18:50:02.678Z,72.82
2022-10-06T18:52:29.726Z,73.86
2022-10-06T18:54:56.879Z,74.32
2022-10-06T18:57:27.900Z,75.60
2022-10-06T18:59:55.404Z,76.16
2022-10-06T19:02:22.567Z,76.19
2022-10-06T19:04:49.807Z,74.35
2022-10-06T19:07:16.713Z,73.65
2022-10-06T19:09:46.513Z,74.24
2022-10-06T19:12:14.302Z,75.09
2022-10-06T19:14:47.712Z,75.84
2022-10-06T19:17:15.356Z,76.67
2022-10-06T19:19:43.915Z,76.02
2022-10-06T19:22:12.416Z,74.37
2022-10-06T19:24:41.112Z,73.88
2022-10-06T19:27:13.066Z,74.40
2022-10-06T19:29:44.246Z,75.62
2022-10-06T19:32:12.241Z,76.30
2022-10-06T19:34:39.327Z,77.34
2022-10-06T19:37:06.322Z,76.38
2022-10-06T19:39:38.088Z,74.74
2022-10-06T19:42:23.924Z,74.55
2022-10-06T19:44:50.971Z,75.67
2022-10-06T19:47:18.012Z,76.86
2022-10-06T19:49:45.367Z,77.50
2022-10-06T19:52:12.615Z,78.35
2022-10-06T19:54:39.762Z,77.31
2022-10-06T19:57:07.226Z,75.93
2022-10-06T19:59:34.279Z,75.88
2022-10-06T20:02:01.226Z,76.42
2022-10-06T20:04:28.320Z,76.90
2022-10-06T20:06:55.524Z,77.72
2022-10-06T20:09:22.976Z,77.55
2022-10-06T20:11:50.618Z,75.82
2022-10-06T20:14:21.014Z,75.74
2022-10-06T20:16:52.199Z,76.46
2022-10-06T20:19:19.902Z,77.28
2022-10-06T20:21:47.743Z,77.83
2022-10-06T20:24:19.893Z,78.59
2022-10-06T20:26:50.836Z,77.44
2022-10-06T20:29:19.560Z,75.24
2022-10-06T20:31:48.136Z,75.34
2022-10-06T20:34:17.070Z,75.98
2022-10-06T20:36:44.152Z,76.78
2022-10-06T20:39:34.996Z,77.49
2022-10-06T20:42:02.209Z,78.21
2022-10-06T20:44:29.331Z,77.03
2022-10-06T20:46:56.338Z,75.79
2022-10-06T20:49:23.451Z,75.57
2022-10-06T20:51:51.901Z,75.72
2022-10-06T20:54:20.108Z,77.69
2022-10-06T20:56:52.796Z,78.43
2022-10-06T20:59:20.757Z,79.07
2022-10-06T21:01:48.050Z,78.27
2022-10-06T21:04:16.398Z,76.43
2022-10-06T21:06:43.406Z,76.70
2022-10-06T21:09:17.246Z,77.32
2022-10-06T21:11:44.913Z,77.91
2022-10-06T21:14:12.579Z,78.92
2022-10-06T21:16:42.283Z,77.98
2022-10-06T21:19:12.412Z,76.93
2022-10-06T21:21:40.366Z,76.71
2022-10-06T21:24:10.383Z,77.83
2022-10-06T21:26:38.870Z,79.03
2022-10-06T21:29:05.913Z,79.73
2022-10-06T21:31:33.547Z,79.14
2022-10-06T21:34:01.652Z,77.68
2022-10-06T21:36:32.381Z,78.08
2022-10-06T21:39:01.192Z,78.58
2022-10-06T21:41:31.963Z,80.09
2022-10-06T21:44:09.306Z,80.79
2022-10-06T21:46:46.964Z,79.70
2022-10-06T21:49:15.477Z,78.62
2022-10-06T21:51:45.822Z,78.53
2022-10-06T21:54:13.454Z,79.44
2022-10-06T21:56:40.707Z,80.26
2022-10-06T21:59:08.077Z,80.96
2022-10-06T22:01:37.100Z,79.98
2022-10-06T22:04:04.556Z,78.94
2022-10-06T22:06:32.900Z,79.33
2022-10-06T22:09:00.143Z,80.10
2022-10-06T22:11:29.239Z,81.49
2022-10-06T22:13:58.843Z,81.90
2022-10-06T22:16:27.732Z,80.38
2022-10-06T22:18:54.897Z,79.30
2022-10-06T22:21:24.184Z,79.51
2022-10-06T22:24:00.971Z,80.20
2022-10-06T22:26:28.892Z,81.38
2022-10-06T22:28:57.111Z,82.93
2022-10-06T22:31:26.194Z,81.48
2022-10-06T22:33:58.608Z,80.44
2022-10-06T22:36:26.247Z,80.69
2022-10-06T22:38:53.381Z,81.33
2022-10-06T22:41:20.442Z,82.16
2022-10-06T22:43:47.889Z,82.98
2022-10-06T22:46:15.295Z,82.23
2022-10-06T22:48:42.495Z,80.74
2022-10-06T22:51:09.646Z,80.59
2022-10-06T22:53:36.793Z,81.62
2022-10-06T22:56:04.250Z,82.96
2022-10-06T22:58:31.322Z,83.90
2022-10-06T23:00:58.488Z,82.57
2022-10-06T23:03:25.822Z,80.80
2022-10-06T23:05:57.427Z,81.36
2022-10-06T23:08:25.013Z,81.70
2022-10-06T23:10:52.371Z,83.13
2022-10-06T23:13:19.725Z,85.06
2022-10-06T23:15:46.773Z,83.73
2022-10-06T23:18:14.753Z,82.14
2022-10-06T23:20:41.890Z,81.93
2022-10-06T23:23:08.938Z,82.22
2022-10-06T23:25:39.061Z,83.30
2022-10-06T23:28:06.265Z,84.81
2022-10-06T23:30:36.124Z,83.56
2022-10-06T23:33:03.681Z,81.73
2022-10-06T23:35:30.827Z,82.27
2022-10-06T23:37:57.881Z,83.38
2022-10-06T23:40:25.034Z,84.46
2022-10-06T23:42:52.095Z,86.02
2022-10-06T23:45:19.136Z,84.61
2022-10-06T23:47:46.499Z,82.13
2022-10-06T23:50:13.932Z,82.03
2022-10-06T23:52:41.805Z,82.63
2022-10-06T23:55:08.966Z,83.85
2022-10-06T23:57:35.999Z,84.68
